Time;durP1;ratioP1;P1;durP2;ratioP2;P2;SDS_P1;SDS_P2;PMS_P1;PMS_P2;Temp;Humidity;BMP_temperature;BMP_pressure;BME280_temperature;BME280_humidity;BME280_pressure;Samples;Min_cycle;Max_cycle;Signal;HPM_P1;HPM_P2
2023/07/10 00:01:04;;;;;;;1.70;1.10;;;19.50;99.90;;;;;;5035747;28;20452;-70
2023/07/10 00:03:31;;;;;;;2.47;1.90;;;19.50;99.90;;;;;;5035750;28;20415;-70
2023/07/10 00:05:57;;;;;;;2.97;2.03;;;19.50;99.90;;;;;;5035576;28;20471;-70
2023/07/10 00:08:23;;;;;;;1.10;1.10;;;19.50;99.90;;;;;;5035790;28;20479;-71
2023/07/10 00:10:49;;;;;;;2.00;1.80;;;19.60;99.90;;;;;;5035607;28;20869;-70
2023/07/10 00:13:15;;;;;;;2.77;2.47;;;19.40;99.90;;;;;;5035564;28;20200;-70
2023/07/10 00:15:40;;;;;;;1.50;1.33;;;19.40;99.90;;;;;;5035512;28;20428;-70
2023/07/10 00:18:14;;;;;;;1.40;1.30;;;19.40;99.90;;;;;;5035463;28;20409;-70
2023/07/10 00:20:40;;;;;;;1.77;1.60;;;19.10;99.90;;;;;;5035884;28;20175;-70
2023/07/10 00:23:06;;;;;;;1.27;1.17;;;19.40;99.90;;;;;;5035620;28;20420;-70
2023/07/10 00:25:31;;;;;;;1.60;1.50;;;19.40;99.90;;;;;;5035313;28;20409;-70
2023/07/10 00:27:57;;;;;;;1.27;1.10;;;19.40;99.90;;;;;;5035472;28;20193;-70
2023/07/10 00:30:24;;;;;;;1.33;1.23;;;19.40;99.90;;;;;;5035359;28;20181;-70
2023/07/10 00:32:52;;;;;;;1.43;1.33;;;19.30;99.90;;;;;;5035363;28;20688;-70
2023/07/10 00:35:19;;;;;;;2.13;1.93;;;19.40;99.90;;;;;;5035229;28;20424;-70
2023/07/10 00:37:47;;;;;;;2.50;1.10;;;19.50;99.90;;;;;;5035138;28;20414;-70
2023/07/10 00:40:22;;;;;;;2.27;2.07;;;19.50;99.90;;;;;;5035258;28;20464;-70
2023/07/10 00:42:52;;;;;;;1.10;1.00;;;19.50;99.90;;;;;;5035016;28;20439;-69
2023/07/10 00:45:18;;;;;;;9.00;1.77;;;19.60;99.90;;;;;;5035500;28;20405;-70
2023/07/10 00:47:54;;;;;;;1.67;1.57;;;19.60;99.90;;;;;;5034891;28;20790;-70
2023/07/10 00:50:28;;;;;;;1.87;1.70;;;19.70;99.90;;;;;;5035213;28;20408;-70
2023/07/10 00:52:56;;;;;;;1.60;1.50;;;19.80;99.90;;;;;;5034982;28;20422;-70
2023/07/10 00:55:30;;;;;;;3.60;2.43;;;19.80;99.90;;;;;;5034824;28;20453;-70
2023/07/10 00:58:28;;;;;;;1.10;1.00;;;19.80;99.90;;;;;;5016557;28;20908;-70
2023/07/10 01:01:07;;;;;;;1.13;1.03;;;19.50;99.90;;;;;;5034607;28;20465;-70
2023/07/10 01:03:34;;;;;;;6.27;1.50;;;19.70;99.90;;;;;;5034714;28;20554;-70
2023/07/10 01:06:07;;;;;;;2.40;2.20;;;19.60;99.90;;;;;;5034584;28;20493;-70
2023/07/10 01:08:33;;;;;;;1.60;1.23;;;19.60;99.90;;;;;;5034877;28;20418;-69
2023/07/10 01:10:59;;;;;;;1.70;1.60;;;19.60;99.90;;;;;;5034534;28;20972;-70
2023/07/10 01:13:25;;;;;;;1.93;1.80;;;19.70;99.90;;;;;;5034433;28;20549;-70
2023/07/10 01:15:51;;;;;;;1.70;1.60;;;19.70;99.90;;;;;;5034529;28;20777;-70
2023/07/10 01:18:19;;;;;;;1.63;1.53;;;19.70;99.90;;;;;;5034623;28;20193;-70
2023/07/10 01:20:47;;;;;;;1.10;1.10;;;19.90;99.90;;;;;;5034283;28;20485;-70
2023/07/10 01:23:15;;;;;;;1.53;1.43;;;19.80;99.90;;;;;;5034370;28;20409;-70
2023/07/10 01:26:01;;;;;;;2.73;1.40;;;19.80;99.90;;;;;;5034155;28;20420;-70
2023/07/10 01:28:27;;;;;;;4.40;2.00;;;19.80;99.90;;;;;;5034375;28;20401;-70
2023/07/10 01:30:55;;;;;;;1.30;1.20;;;19.80;99.90;;;;;;5034117;28;20775;-70
2023/07/10 01:33:26;;;;;;;3.07;2.03;;;19.90;99.90;;;;;;5034045;28;20459;-70
2023/07/10 01:35:56;;;;;;;0.90;0.90;;;19.90;99.90;;;;;;5016240;28;20414;-70
2023/07/10 01:38:30;;;;;;;1.17;1.17;;;20.00;99.90;;;;;;5034145;28;20401;-70
2023/07/10 01:40:58;;;;;;;2.83;2.10;;;19.70;99.90;;;;;;5034069;28;20772;-70
2023/07/10 01:43:23;;;;;;;3.80;1.57;;;20.00;99.90;;;;;;5033896;28;20413;-70
2023/07/10 01:45:49;;;;;;;1.97;1.60;;;20.00;99.90;;;;;;5033726;28;20483;-69
2023/07/10 01:48:17;;;;;;;2.70;1.63;;;20.00;99.90;;;;;;5033945;28;20172;-70
2023/07/10 01:50:43;;;;;;;2.20;1.83;;;20.30;99.90;;;;;;5033811;28;20469;-70
2023/07/10 01:53:10;;;;;;;1.97;1.80;;;20.10;99.90;;;;;;5033834;28;20502;-70
2023/07/10 01:55:44;;;;;;;1.33;1.27;;;20.20;99.90;;;;;;5033842;28;20401;-70
2023/07/10 01:58:11;;;;;;;1.70;1.60;;;20.10;99.90;;;;;;5033951;28;20412;-70
2023/07/10 02:00:38;;;;;;;2.43;2.23;;;20.10;99.90;;;;;;5033537;28;20422;-70
2023/07/10 02:03:04;;;;;;;2.40;2.20;;;20.00;99.90;;;;;;5033665;28;20802;-70
2023/07/10 02:05:30;;;;;;;1.30;1.30;;;19.90;99.90;;;;;;5033589;28;20422;-70
2023/07/10 02:07:55;;;;;;;3.90;1.50;;;19.80;99.90;;;;;;5033707;28;20175;-70
2023/07/10 02:10:21;;;;;;;1.10;0.90;;;19.70;99.90;;;;;;5015252;28;20565;-70
2023/07/10 02:12:46;;;;;;;3.87;2.73;;;19.70;99.90;;;;;;5033403;28;20194;-70
2023/07/10 02:15:12;;;;;;;1.67;1.40;;;19.70;99.90;;;;;;5033519;28;20226;-70
2023/07/10 02:17:38;;;;;;;2.33;2.20;;;19.80;99.90;;;;;;5033314;28;20170;-70
2023/07/10 02:20:05;;;;;;;2.60;2.37;;;19.80;99.90;;;;;;5033643;28;20802;-70
2023/07/10 02:22:32;;;;;;;1.30;1.20;;;19.80;99.90;;;;;;5033502;28;20187;-70
2023/07/10 02:24:57;;;;;;;3.20;2.43;;;19.80;99.90;;;;;;5033512;28;20398;-70
2023/07/10 02:27:23;;;;;;;1.40;1.30;;;19.80;99.90;;;;;;5033142;28;20488;-70
2023/07/10 02:29:48;;;;;;;1.30;1.30;;;19.70;99.90;;;;;;5033305;28;20178;-70
2023/07/10 02:32:14;;;;;;;2.47;2.37;;;19.70;99.90;;;;;;5033209;28;20186;-70
2023/07/10 02:34:40;;;;;;;1.40;1.30;;;19.60;99.90;;;;;;5033489;28;20561;-70
2023/07/10 02:37:05;;;;;;;1.80;1.70;;;19.50;99.90;;;;;;5033294;28;20209;-70
2023/07/10 02:39:31;;;;;;;2.77;2.50;;;19.50;99.90;;;;;;5033498;28;20173;-70
2023/07/10 02:41:57;;;;;;;2.00;1.90;;;19.50;99.90;;;;;;5033271;28;20255;-70
2023/07/10 02:44:22;;;;;;;5.23;2.50;;;19.50;99.90;;;;;;5015512;28;20625;-70
2023/07/10 02:46:48;;;;;;;2.50;2.30;;;19.60;99.90;;;;;;5033191;28;20173;-70
2023/07/10 02:49:13;;;;;;;2.43;2.23;;;19.60;99.90;;;;;;5033378;28;20182;-71
2023/07/10 02:51:39;;;;;;;1.53;1.43;;;19.70;99.90;;;;;;5033303;28;20191;-70
2023/07/10 02:54:12;;;;;;;2.50;2.30;;;19.70;99.90;;;;;;5033012;28;20193;-70
2023/07/10 02:56:38;;;;;;;3.63;3.33;;;19.70;99.90;;;;;;5032896;28;20181;-69
2023/07/10 02:59:04;;;;;;;1.53;1.43;;;19.70;99.90;;;;;;5033287;28;20408;-70
2023/07/10 03:01:29;;;;;;;1.73;1.50;;;19.60;99.90;;;;;;5015135;28;20459;-70
2023/07/10 03:03:55;;;;;;;4.33;1.83;;;19.70;99.90;;;;;;5033071;28;20229;-70
2023/07/10 03:06:23;;;;;;;1.47;1.40;;;19.70;99.90;;;;;;5032903;28;20176;-70
2023/07/10 03:08:48;;;;;;;2.77;2.50;;;19.80;99.90;;;;;;5033122;28;20611;-70
2023/07/10 03:11:16;;;;;;;3.47;1.63;;;19.60;99.90;;;;;;5033094;28;20513;-70
2023/07/10 03:13:41;;;;;;;0.93;0.93;;;19.60;99.90;;;;;;5032949;28;20580;-70
2023/07/10 03:16:13;;;;;;;2.80;1.80;;;19.60;99.90;;;;;;5032732;28;20490;-70
2023/07/10 03:18:39;;;;;;;1.47;1.30;;;19.70;99.90;;;;;;5033132;28;20170;-70
2023/07/10 03:21:05;;;;;;;3.00;2.80;;;19.70;99.90;;;;;;5033314;28;20428;-70
2023/07/10 03:23:31;;;;;;;1.57;1.47;;;19.70;99.90;;;;;;5036394;28;20504;-70
2023/07/10 03:25:56;;;;;;;2.20;2.00;;;19.80;99.90;;;;;;5036353;28;20437;-70
2023/07/10 03:28:22;;;;;;;1.20;1.10;;;19.80;99.90;;;;;;5035844;28;20171;-70
2023/07/10 03:30:48;;;;;;;7.93;3.30;;;19.50;99.90;;;;;;5036452;28;20179;-70
2023/07/10 03:33:15;;;;;;;2.67;2.20;;;19.60;99.90;;;;;;5036248;28;20246;-70
2023/07/10 03:35:42;;;;;;;1.23;1.13;;;19.60;99.90;;;;;;5036249;28;20403;-70
2023/07/10 03:38:08;;;;;;;2.40;2.20;;;19.60;99.90;;;;;;5036630;28;20401;-70
2023/07/10 03:40:34;;;;;;;2.03;1.90;;;19.50;99.90;;;;;;5036456;28;20531;-70
2023/07/10 03:43:00;;;;;;;2.63;2.43;;;19.50;99.90;;;;;;5036132;28;20520;-70
2023/07/10 03:45:25;;;;;;;2.47;2.37;;;19.50;99.90;;;;;;5036144;28;20171;-69
2023/07/10 03:47:51;;;;;;;2.27;2.17;;;19.50;99.90;;;;;;5036344;28;20174;-69
2023/07/10 03:50:18;;;;;;;1.80;1.13;;;19.60;99.90;;;;;;5036031;28;20166;-70
2023/07/10 03:52:43;;;;;;;1.97;1.77;;;19.70;99.90;;;;;;5036000;28;20239;-70
2023/07/10 03:55:09;;;;;;;2.20;1.77;;;19.80;99.90;;;;;;5035972;28;20441;-70
2023/07/10 03:57:35;;;;;;;2.30;2.00;;;19.90;99.90;;;;;;5035839;28;20174;-70
2023/07/10 04:00:01;;;;;;;1.57;1.50;;;20.00;99.90;;;;;;5036243;28;20178;-70
2023/07/10 04:02:26;;;;;;;2.57;2.37;;;20.10;99.90;;;;;;5035756;28;20206;-70
2023/07/10 04:04:52;;;;;;;2.90;1.80;;;20.20;99.90;;;;;;5036058;28;20405;-70
2023/07/10 04:07:18;;;;;;;2.00;1.80;;;20.30;99.90;;;;;;5035641;28;20225;-70
2023/07/10 04:09:43;;;;;;;3.17;2.20;;;20.30;99.90;;;;;;5035876;28;20535;-70
2023/07/10 04:12:09;;;;;;;1.93;1.70;;;20.40;99.90;;;;;;5035704;28;20285;-70
2023/07/10 04:14:37;;;;;;;2.23;1.60;;;20.40;99.90;;;;;;5035752;28;20722;-70
2023/07/10 04:17:06;;;;;;;2.17;1.90;;;20.30;99.90;;;;;;5035345;28;20174;-70
2023/07/10 04:19:32;;;;;;;2.57;1.47;;;20.30;99.90;;;;;;5035505;28;20402;-70
2023/07/10 04:21:58;;;;;;;1.90;1.77;;;20.40;99.90;;;;;;5035556;28;20769;-70
2023/07/10 04:24:24;;;;;;;1.23;1.23;;;20.50;99.90;;;;;;5035599;28;20403;-70
2023/07/10 04:26:49;;;;;;;2.40;2.13;;;20.50;99.90;;;;;;5035285;28;20886;-70
2023/07/10 04:29:18;;;;;;;5.70;1.90;;;20.60;99.90;;;;;;5035479;28;20179;-70
2023/07/10 04:31:43;;;;;;;3.80;1.83;;;20.50;99.90;;;;;;5035314;28;20191;-70
2023/07/10 04:34:10;;;;;;;13.73;1.70;;;20.50;99.90;;;;;;5034197;28;20465;-71
2023/07/10 04:36:36;;;;;;;1.47;1.37;;;20.60;99.90;;;;;;5035176;28;20638;-70
2023/07/10 04:39:02;;;;;;;1.37;1.27;;;20.60;99.90;;;;;;5035277;28;20401;-69
2023/07/10 04:41:28;;;;;;;1.60;1.50;;;20.70;99.90;;;;;;5035204;28;20192;-70
2023/07/10 04:43:53;;;;;;;2.97;1.40;;;20.90;99.90;;;;;;5035315;28;20409;-70
2023/07/10 04:46:21;;;;;;;1.90;0.90;;;21.00;99.90;;;;;;5034938;28;20609;-70
2023/07/10 04:48:47;;;;;;;1.47;1.37;;;21.00;99.90;;;;;;5034413;28;20172;-70
2023/07/10 04:51:17;;;;;;;1.80;1.33;;;21.10;99.90;;;;;;5033943;28;20446;-70
2023/07/10 04:53:44;;;;;;;2.20;1.63;;;21.20;99.90;;;;;;5034976;28;20464;-70
2023/07/10 04:56:12;;;;;;;2.50;1.80;;;21.20;99.90;;;;;;5034751;28;20421;-70
2023/07/10 04:58:45;;;;;;;1.40;1.30;;;21.30;99.90;;;;;;5034830;28;20494;-70
2023/07/10 05:01:11;;;;;;;1.47;1.37;;;21.20;99.90;;;;;;5034657;28;20451;-70
2023/07/10 05:03:37;;;;;;;1.30;1.20;;;21.10;99.90;;;;;;5035005;28;20910;-70
2023/07/10 05:06:03;;;;;;;1.40;1.27;;;20.90;99.90;;;;;;5034577;28;20176;-70
2023/07/10 05:08:29;;;;;;;1.60;1.50;;;20.70;99.90;;;;;;5034438;28;20430;-70
2023/07/10 05:14:17;;;;;;;1.73;1.63;;;20.90;99.90;;;;;;5034060;28;20466;-70
2023/07/10 05:16:42;;;;;;;3.27;3.17;;;20.70;99.90;;;;;;5034234;28;20414;-70
2023/07/10 05:19:08;;;;;;;1.07;0.97;;;20.70;99.90;;;;;;5034375;28;20172;-70
2023/07/10 05:21:34;;;;;;;1.30;1.20;;;20.70;99.90;;;;;;5034548;28;20187;-70
2023/07/10 05:23:59;;;;;;;1.47;1.37;;;20.60;99.90;;;;;;5034400;28;20172;-70
2023/07/10 05:26:26;;;;;;;2.93;1.67;;;20.70;99.90;;;;;;5034287;28;20179;-70
2023/07/10 05:28:51;;;;;;;1.40;1.10;;;20.60;99.90;;;;;;5034037;28;20165;-70
2023/07/10 05:31:17;;;;;;;1.27;1.17;;;20.50;99.90;;;;;;5034640;28;20521;-70
2023/07/10 05:33:43;;;;;;;5.40;2.27;;;20.40;99.90;;;;;;5033939;28;20647;-70
2023/07/10 05:36:11;;;;;;;1.20;1.10;;;20.20;99.90;;;;;;5034212;28;20178;-70
2023/07/10 05:38:37;;;;;;;2.10;2.00;;;20.00;99.90;;;;;;5033976;28;20171;-70
2023/07/10 05:41:04;;;;;;;1.93;1.70;;;19.90;99.90;;;;;;5034217;28;20426;-70
2023/07/10 05:43:31;;;;;;;1.80;1.70;;;19.90;99.90;;;;;;5015934;28;20477;-70
2023/07/10 05:45:58;;;;;;;3.00;2.77;;;19.90;99.90;;;;;;5033648;28;20492;-70
2023/07/10 05:48:23;;;;;;;1.70;1.60;;;19.90;99.90;;;;;;5033653;28;20409;-70
2023/07/10 05:50:50;;;;;;;3.40;2.20;;;20.10;99.90;;;;;;5033703;28;20771;-70
2023/07/10 05:53:17;;;;;;;1.70;1.60;;;19.80;99.90;;;;;;5033505;28;20949;-71
2023/07/10 05:55:47;;;;;;;2.00;1.90;;;19.90;99.90;;;;;;5032575;28;20402;-70
2023/07/10 05:58:13;;;;;;;3.60;2.17;;;19.90;99.90;;;;;;5033646;28;20398;-70
2023/07/10 06:00:41;;;;;;;3.60;1.47;;;20.00;99.90;;;;;;5033326;28;20422;-70
2023/07/10 06:03:07;;;;;;;2.20;2.10;;;20.00;99.90;;;;;;5033819;28;20443;-70
2023/07/10 06:05:33;;;;;;;2.10;2.00;;;20.10;99.90;;;;;;5015902;28;20409;-70
2023/07/10 06:07:58;;;;;;;1.73;1.63;;;20.10;99.90;;;;;;5015947;28;20539;-71
2023/07/10 06:10:24;;;;;;;3.13;2.90;;;20.20;99.90;;;;;;5033550;28;20168;-70
2023/07/10 06:12:49;;;;;;;2.70;2.50;;;20.30;99.90;;;;;;5033190;28;20183;-70
2023/07/10 06:15:15;;;;;;;2.20;2.07;;;20.40;99.90;;;;;;5033526;28;20425;-71
2023/07/10 06:17:41;;;;;;;1.83;1.73;;;20.70;99.90;;;;;;5033234;28;20172;-70
2023/07/10 06:20:07;;;;;;;2.63;2.50;;;21.10;99.90;;;;;;5033277;28;20197;-70
2023/07/10 06:22:32;;;;;;;1.83;1.73;;;21.50;99.90;;;;;;5033217;28;20186;-70
2023/07/10 06:24:58;;;;;;;1.70;1.60;;;21.80;99.90;;;;;;5033588;28;20815;-70
2023/07/10 06:27:24;;;;;;;1.90;1.80;;;22.10;99.90;;;;;;5033004;28;20635;-71
2023/07/10 06:29:51;;;;;;;1.67;1.57;;;23.00;99.90;;;;;;5015605;28;20178;-71
2023/07/10 06:32:20;;;;;;;2.07;1.97;;;24.20;99.90;;;;;;5033345;28;20198;-71
2023/07/10 06:34:45;;;;;;;1.60;1.50;;;24.80;99.90;;;;;;5033213;28;20452;-70
2023/07/10 06:37:11;;;;;;;1.70;1.03;;;24.80;99.90;;;;;;5033150;28;20493;-71
2023/07/10 06:39:37;;;;;;;1.37;1.27;;;24.70;99.90;;;;;;5033366;28;20179;-71
2023/07/10 06:42:03;;;;;;;2.30;1.37;;;24.90;99.90;;;;;;5015440;28;20194;-71
2023/07/10 06:44:28;;;;;;;1.50;1.40;;;25.80;99.90;;;;;;5033162;28;20193;-72
2023/07/10 06:46:54;;;;;;;1.37;1.27;;;27.20;98.80;;;;;;5033010;28;20889;-71
2023/07/10 06:49:19;;;;;;;1.53;1.10;;;28.60;95.20;;;;;;5033216;28;20174;-71
2023/07/10 06:51:45;;;;;;;2.50;1.90;;;29.40;92.50;;;;;;5033231;28;20253;-71
2023/07/10 06:54:11;;;;;;;2.00;1.60;;;29.30;91.50;;;;;;5033047;28;20194;-71
2023/07/10 06:56:36;;;;;;;3.70;1.70;;;28.70;91.80;;;;;;5034248;28;20200;-71
2023/07/10 06:59:02;;;;;;;3.10;2.03;;;27.90;92.80;;;;;;5037042;28;20702;-71
2023/07/10 07:01:28;;;;;;;1.13;1.03;;;27.30;93.80;;;;;;5036810;28;20217;-71
2023/07/10 07:03:53;;;;;;;1.37;1.27;;;26.80;94.50;;;;;;5037025;28;20511;-70
2023/07/10 07:06:19;;;;;;;5.30;1.00;;;26.20;94.80;;;;;;5036647;28;20167;-71
2023/07/10 07:08:50;;;;;;;1.90;1.43;;;25.80;96.10;;;;;;5036792;28;20171;-71
2023/07/10 07:11:16;;;;;;;1.47;1.37;;;25.50;96.90;;;;;;5019094;28;20736;-71
2023/07/10 07:13:42;;;;;;;1.90;1.23;;;25.50;97.50;;;;;;5036594;28;20445;-71
2023/07/10 07:16:08;;;;;;;1.27;1.20;;;25.70;98.10;;;;;;5035773;28;20229;-71
2023/07/10 07:18:34;;;;;;;1.20;1.10;;;26.20;97.00;;;;;;5035893;28;20178;-71
2023/07/10 07:21:00;;;;;;;1.03;0.93;;;27.10;99.90;;;;;;5036372;28;20427;-72
2023/07/10 07:23:27;;;;;;;1.93;1.50;;;27.20;95.90;;;;;;5036578;28;20653;-71
2023/07/10 07:25:54;;;;;;;2.40;1.07;;;27.60;93.60;;;;;;5036301;28;20167;-71
2023/07/10 07:28:21;;;;;;;1.40;1.30;;;27.80;93.70;;;;;;5036568;28;20406;-71
2023/07/10 07:30:49;;;;;;;1.10;1.03;;;27.90;97.00;;;;;;5036334;28;20397;-71
2023/07/10 07:33:16;;;;;;;1.10;0.97;;;27.60;94.00;;;;;;5036343;28;20417;-71
2023/07/10 07:35:42;;;;;;;2.20;1.20;;;27.70;94.70;;;;;;5036379;28;20874;-71
2023/07/10 07:38:08;;;;;;;1.30;1.20;;;27.50;93.80;;;;;;5036362;28;20436;-71
2023/07/10 07:40:35;;;;;;;1.13;1.13;;;27.60;94.70;;;;;;5036260;28;20548;-71
2023/07/10 07:43:01;;;;;;;0.67;0.67;;;27.90;94.60;;;;;;5036266;28;20912;-71
2023/07/10 07:45:26;;;;;;;1.00;1.00;;;28.60;94.40;;;;;;5036039;28;20410;-71
2023/07/10 07:47:52;;;;;;;2.00;1.77;;;29.30;92.60;;;;;;5036330;28;20313;-71
2023/07/10 07:50:18;;;;;;;1.57;1.47;;;29.80;92.40;;;;;;5036455;28;20627;-71
2023/07/10 07:52:43;;;;;;;1.67;1.40;;;30.40;91.20;;;;;;5035958;28;20218;-71
2023/07/10 07:55:09;;;;;;;1.50;1.40;;;31.50;89.30;;;;;;5036139;28;20198;-71
2023/07/10 07:57:37;;;;;;;0.80;0.80;;;32.50;83.50;;;;;;5035733;28;20175;-71
2023/07/10 08:00:04;;;;;;;2.03;1.27;;;33.70;81.80;;;;;;5035938;28;20193;-71
2023/07/10 08:02:30;;;;;;;1.00;0.80;;;35.00;76.60;;;;;;5035809;28;20429;-71
2023/07/10 08:04:56;;;;;;;1.33;1.23;;;36.00;71.40;;;;;;5035937;28;20398;-69
2023/07/10 08:07:21;;;;;;;1.20;1.13;;;36.70;66.80;;;;;;5035136;28;20405;-69
2023/07/10 08:09:47;;;;;;;1.37;1.20;;;36.90;67.10;;;;;;5035333;28;20178;-69
2023/07/10 08:12:13;;;;;;;1.17;1.07;;;37.20;65.60;;;;;;5035790;28;20562;-69
2023/07/10 08:14:38;;;;;;;1.10;1.10;;;37.40;64.10;;;;;;5035473;28;20214;-69
2023/07/10 08:17:05;;;;;;;1.10;1.10;;;38.00;61.50;;;;;;5035493;28;20182;-69
2023/07/10 08:19:30;;;;;;;1.43;0.80;;;38.50;59.10;;;;;;5035664;28;20228;-69
2023/07/10 08:21:57;;;;;;;1.00;1.00;;;38.80;55.90;;;;;;5035427;28;20437;-69
2023/07/10 08:24:24;;;;;;;1.73;1.30;;;38.40;57.20;;;;;;5035510;28;20253;-70
2023/07/10 08:26:50;;;;;;;1.43;1.33;;;37.40;58.30;;;;;;5035205;28;20410;-69
2023/07/10 08:29:30;;;;;;;1.40;1.30;;;36.10;60.20;;;;;;5035332;28;20405;-69
2023/07/10 08:31:58;;;;;;;1.07;0.97;;;34.50;61.70;;;;;;5035274;28;20433;-69
2023/07/10 08:34:25;;;;;;;1.63;1.30;;;33.90;64.60;;;;;;5035214;28;20453;-68
2023/07/10 08:36:52;;;;;;;1.40;0.97;;;33.60;65.70;;;;;;5034841;28;20497;-69
2023/07/10 08:39:19;;;;;;;1.20;1.10;;;32.90;69.00;;;;;;5033544;28;20417;-68
2023/07/10 08:41:52;;;;;;;1.57;1.47;;;31.90;68.60;;;;;;5034774;28;20925;-68
2023/07/10 08:44:18;;;;;;;2.20;1.40;;;30.90;72.70;;;;;;5034729;28;20782;-69
2023/07/10 08:46:46;;;;;;;1.10;1.00;;;30.00;78.50;;;;;;5034812;28;20504;-69
2023/07/10 08:49:36;;;;;;;2.03;0.97;;;29.60;81.40;;;;;;5034552;28;20433;-69
2023/07/10 08:52:12;;;;;;;1.20;1.10;;;30.00;79.70;;;;;;5035110;28;20441;-70
2023/07/10 08:54:38;;;;;;;2.40;1.17;;;30.10;78.80;;;;;;5035382;28;20839;-70
2023/07/10 08:57:26;;;;;;;0.83;0.77;;;30.40;79.10;;;;;;5035000;28;20496;-69
2023/07/10 09:00:04;;;;;;;1.03;1.00;;;31.20;75.90;;;;;;5033571;28;20493;-69
2023/07/10 09:02:42;;;;;;;1.27;1.17;;;31.80;73.80;;;;;;5034610;28;20451;-69
2023/07/10 09:05:18;;;;;;;1.07;0.97;;;32.60;72.40;;;;;;5034764;28;20429;-70
2023/07/10 09:07:45;;;;;;;1.40;1.30;;;33.70;67.60;;;;;;5034801;28;20437;-70
2023/07/10 09:10:22;;;;;;;1.10;1.00;;;34.80;66.80;;;;;;5035212;28;20929;-68
2023/07/10 09:12:54;;;;;;;1.43;1.33;;;34.90;62.60;;;;;;5034422;28;20445;-68
2023/07/10 09:15:27;;;;;;;2.20;1.63;;;35.00;62.30;;;;;;5034698;28;20445;-69
2023/07/10 09:17:58;;;;;;;1.30;1.20;;;34.90;60.60;;;;;;5035088;28;20900;-69
2023/07/10 09:20:25;;;;;;;1.40;1.10;;;34.50;63.80;;;;;;5034179;28;20496;-69
2023/07/10 09:23:02;;;;;;;1.30;0.90;;;33.60;64.80;;;;;;5033531;28;20430;-69
2023/07/10 09:25:29;;;;;;;4.50;1.93;;;32.70;65.40;;;;;;5033710;28;20413;-69
2023/07/10 09:27:56;;;;;;;1.40;1.10;;;32.00;70.30;;;;;;5033797;28;20420;-69
2023/07/10 09:30:43;;;;;;;1.23;1.13;;;31.40;75.10;;;;;;5033738;28;20410;-69
2023/07/10 09:33:09;;;;;;;1.07;1.07;;;30.90;76.00;;;;;;5033922;28;20776;-69
2023/07/10 09:35:39;;;;;;;1.10;1.00;;;30.70;82.80;;;;;;5034250;28;20402;-68
2023/07/10 09:38:05;;;;;;;1.10;1.00;;;30.40;82.70;;;;;;5034272;28;20406;-68
2023/07/10 09:40:37;;;;;;;0.97;0.97;;;30.30;81.10;;;;;;5034126;28;20488;-69
2023/07/10 09:43:14;;;;;;;2.00;1.80;;;30.60;80.60;;;;;;5016294;28;20953;-68
2023/07/10 09:45:44;;;;;;;1.20;1.10;;;30.60;81.70;;;;;;5034049;28;20409;-69
2023/07/10 09:48:30;;;;;;;1.00;0.90;;;30.40;79.00;;;;;;5033440;28;20410;-69
2023/07/10 09:51:00;;;;;;;2.57;1.80;;;30.00;90.30;;;;;;5032568;28;20837;-69
2023/07/10 09:53:36;;;;;;;1.53;1.43;;;30.00;76.10;;;;;;5033750;28;20449;-69
2023/07/10 09:56:03;;;;;;;2.27;1.70;;;30.00;80.00;;;;;;5033771;28;20401;-68
2023/07/10 09:58:29;;;;;;;2.30;1.60;;;29.90;79.90;;;;;;5016242;28;20987;-68
2023/07/10 10:00:59;;;;;;;1.67;1.57;;;29.70;92.40;;;;;;5033584;28;20429;-69
2023/07/10 10:03:30;;;;;;;1.43;1.33;;;29.90;81.90;;;;;;5033982;28;20214;-69
2023/07/10 10:05:57;;;;;;;1.70;1.60;;;30.20;85.10;;;;;;5015817;28;21064;-69
2023/07/10 10:08:32;;;;;;;1.33;1.30;;;30.20;82.30;;;;;;5016044;28;20427;-69
2023/07/10 10:11:09;;;;;;;1.37;1.10;;;29.70;93.00;;;;;;5033695;28;20436;-68
2023/07/10 10:13:56;;;;;;;2.07;1.20;;;30.20;86.30;;;;;;5033897;28;20846;-69
2023/07/10 10:16:34;;;;;;;1.73;1.63;;;30.60;81.10;;;;;;5015669;28;20921;-69
2023/07/10 10:19:18;;;;;;;1.50;1.27;;;31.40;80.70;;;;;;5033672;28;20897;-69
2023/07/10 10:21:44;;;;;;;2.20;1.20;;;31.40;80.50;;;;;;5033788;28;20440;-69
2023/07/10 10:24:11;;;;;;;1.67;1.57;;;31.30;79.80;;;;;;5033544;28;20405;-69
2023/07/10 10:27:31;;;;;;;1.43;1.33;;;31.60;76.00;;;;;;5033256;28;20178;-69
2023/07/10 10:30:08;;;;;;;2.23;1.30;;;32.60;71.40;;;;;;4953385;29;20416;-69
2023/07/10 10:32:37;;;;;;;1.57;1.47;;;33.40;68.70;;;;;;4952594;29;20511;-69
2023/07/10 10:35:14;;;;;;;1.23;1.20;;;33.60;66.20;;;;;;5006824;28;20465;-68
2023/07/10 10:38:01;;;;;;;1.53;1.43;;;33.50;65.50;;;;;;5033156;28;20416;-69
2023/07/10 10:40:36;;;;;;;3.60;1.40;;;33.70;64.20;;;;;;5033241;28;20793;-69
2023/07/10 10:43:31;;;;;;;1.50;1.30;;;33.70;59.90;;;;;;5033303;28;20464;-69
2023/07/10 10:46:03;;;;;;;1.43;1.27;;;33.00;61.70;;;;;;5033078;28;20784;-68
2023/07/10 10:48:38;;;;;;;1.40;1.30;;;32.80;59.30;;;;;;5033658;28;20447;-68
2023/07/10 10:51:26;;;;;;;1.70;1.37;;;33.00;63.60;;;;;;5033245;28;20822;-69
2023/07/10 10:54:38;;;;;;;1.27;1.17;;;33.10;59.90;;;;;;5033164;28;20453;-68
2023/07/10 10:57:12;;;;;;;1.70;1.60;;;33.30;66.20;;;;;;4952870;29;20491;-69
2023/07/10 10:59:52;;;;;;;1.33;1.23;;;32.50;57.70;;;;;;5021231;28;20905;-69
2023/07/10 11:02:36;;;;;;;1.87;1.60;;;32.10;62.80;;;;;;5033054;28;20485;-68
2023/07/10 11:05:43;;;;;;;1.77;1.67;;;32.00;64.10;;;;;;5033033;28;20412;-68
2023/07/10 11:08:21;;;;;;;1.43;1.33;;;31.90;64.10;;;;;;4952727;29;20449;-69
2023/07/10 11:10:48;;;;;;;1.37;1.17;;;31.90;71.40;;;;;;5026441;28;20436;-69
2023/07/10 11:13:31;;;;;;;1.00;0.90;;;31.90;62.60;;;;;;5032847;28;20420;-69
2023/07/10 11:15:57;;;;;;;2.73;1.00;;;32.00;57.60;;;;;;5033023;28;20413;-68
2023/07/10 11:18:24;;;;;;;1.30;1.20;;;31.90;62.80;;;;;;5033220;28;20412;-69
2023/07/10 11:20:50;;;;;;;0.80;0.80;;;31.20;74.10;;;;;;5032955;28;20424;-69
2023/07/10 11:23:34;;;;;;;1.80;1.70;;;31.30;64.10;;;;;;5032900;28;20771;-69
2023/07/10 11:26:06;;;;;;;1.03;1.03;;;31.20;63.70;;;;;;5032365;28;20429;-69
2023/07/10 11:28:32;;;;;;;1.40;1.30;;;31.20;64.30;;;;;;5032867;28;20406;-69
2023/07/10 11:31:35;;;;;;;2.23;1.20;;;31.30;78.20;;;;;;5033017;28;20401;-68
2023/07/10 11:34:06;;;;;;;1.70;1.30;;;31.10;60.30;;;;;;5032722;28;20207;-69
2023/07/10 11:36:46;;;;;;;1.37;1.00;;;31.10;64.80;;;;;;5032593;28;20874;-69
2023/07/10 11:39:18;;;;;;;1.43;1.23;;;31.10;63.80;;;;;;5032942;28;20409;-69
2023/07/10 11:41:44;;;;;;;1.20;1.10;;;31.20;66.00;;;;;;5032766;28;20508;-69
2023/07/10 11:44:32;;;;;;;0.70;0.70;;;31.10;60.70;;;;;;5036091;28;20965;-69
2023/07/10 11:47:04;;;;;;;1.00;1.00;;;31.10;63.80;;;;;;5036128;28;20171;-69
2023/07/10 11:49:51;;;;;;;1.60;1.47;;;30.80;63.10;;;;;;5036466;28;20402;-68
2023/07/10 11:52:16;;;;;;;1.20;1.20;;;30.20;61.50;;;;;;5036424;28;20429;-68
2023/07/10 11:54:48;;;;;;;1.70;1.60;;;30.00;66.80;;;;;;5036266;28;20453;-69
2023/07/10 11:57:31;;;;;;;4.20;1.37;;;29.80;68.50;;;;;;5035988;28;20171;-68
2023/07/10 12:00:12;;;;;;;1.83;1.40;;;29.90;66.90;;;;;;5036150;28;20947;-69
2023/07/10 12:02:47;;;;;;;3.57;1.70;;;29.90;61.70;;;;;;5035923;28;20433;-69
2023/07/10 12:05:19;;;;;;;1.23;0.93;;;30.10;62.10;;;;;;5018353;28;20405;-69
2023/07/10 12:07:52;;;;;;;1.63;1.53;;;30.20;61.70;;;;;;5036018;28;20909;-68
2023/07/10 12:10:18;;;;;;;1.30;1.20;;;30.30;64.10;;;;;;5036134;28;20409;-69
2023/07/10 12:12:44;;;;;;;1.90;1.77;;;30.30;68.40;;;;;;5035697;28;20432;-68
2023/07/10 12:15:11;;;;;;;3.70;1.40;;;30.10;62.80;;;;;;5035788;28;20457;-68
2023/07/10 12:17:39;;;;;;;1.70;1.60;;;29.80;62.10;;;;;;5035737;28;20206;-69
2023/07/10 12:20:19;;;;;;;0.93;0.83;;;29.80;60.80;;;;;;5035850;28;20420;-69
2023/07/10 12:22:45;;;;;;;1.67;1.57;;;29.70;64.90;;;;;;5035602;28;20444;-69
2023/07/10 12:25:13;;;;;;;2.50;1.20;;;29.80;70.60;;;;;;5035511;28;20905;-68
2023/07/10 12:27:39;;;;;;;1.70;1.30;;;29.80;63.70;;;;;;5035523;28;20220;-68
2023/07/10 12:30:21;;;;;;;1.30;1.20;;;29.70;64.00;;;;;;5035619;28;20780;-71
2023/07/10 12:32:49;;;;;;;1.53;1.43;;;29.50;70.80;;;;;;5035406;28;20429;-71
2023/07/10 12:35:28;;;;;;;0.97;0.97;;;29.50;62.60;;;;;;5035766;28;20453;-71
2023/07/10 12:37:54;;;;;;;1.20;1.10;;;29.20;61.70;;;;;;5035516;28;20468;-71
2023/07/10 12:40:19;;;;;;;1.50;1.40;;;29.30;64.20;;;;;;5035570;28;20464;-71
2023/07/10 12:42:47;;;;;;;3.80;1.63;;;29.60;66.20;;;;;;5035432;28;20191;-71
2023/07/10 12:45:19;;;;;;;0.83;0.80;;;29.70;64.00;;;;;;5035222;28;20170;-71
2023/07/10 12:47:52;;;;;;;0.93;0.90;;;29.50;61.80;;;;;;5035174;28;20433;-71
2023/07/10 12:50:20;;;;;;;0.77;0.67;;;29.40;62.50;;;;;;5035229;28;20781;-71
2023/07/10 12:52:46;;;;;;;2.27;1.37;;;29.50;65.70;;;;;;5035168;28;20939;-71
2023/07/10 12:55:16;;;;;;;1.63;1.40;;;29.60;62.60;;;;;;5034500;28;20453;-71
2023/07/10 12:57:42;;;;;;;1.40;1.30;;;29.60;63.20;;;;;;5034906;28;20170;-71
2023/07/10 13:00:10;;;;;;;1.43;1.10;;;29.50;69.30;;;;;;5017156;28;20414;-71
2023/07/10 13:02:47;;;;;;;2.10;1.40;;;29.60;67.30;;;;;;5034996;28;20594;-71